sensor_id;sensor_type;location;lat;lon;timestamp;temperature;humidity
18091;DHT22;9172;49.948;9.208;2023-06-04T00:00:09;16.30;81.60
18091;DHT22;9172;49.948;9.208;2023-06-04T00:02:39;16.20;81.70
18091;DHT22;9172;49.948;9.208;2023-06-04T00:05:09;16.20;82.30
18091;DHT22;9172;49.948;9.208;2023-06-04T00:07:37;16.20;82.10
18091;DHT22;9172;49.948;9.208;2023-06-04T00:10:07;16.20;81.90
18091;DHT22;9172;49.948;9.208;2023-06-04T00:12:36;16.10;81.90
18091;DHT22;9172;49.948;9.208;2023-06-04T00:15:07;16.10;82.00
18091;DHT22;9172;49.948;9.208;2023-06-04T00:17:37;16.10;82.10
18091;DHT22;9172;49.948;9.208;2023-06-04T00:20:08;16.00;81.90
18091;DHT22;9172;49.948;9.208;2023-06-04T00:22:36;16.00;81.70
18091;DHT22;9172;49.948;9.208;2023-06-04T00:25:07;16.00;82.00
18091;DHT22;9172;49.948;9.208;2023-06-04T00:27:36;16.00;81.80
18091;DHT22;9172;49.948;9.208;2023-06-04T00:30:07;15.90;82.10
18091;DHT22;9172;49.948;9.208;2023-06-04T00:32:37;15.90;81.70
18091;DHT22;9172;49.948;9.208;2023-06-04T00:35:07;15.90;82.20
18091;DHT22;9172;49.948;9.208;2023-06-04T00:37:36;15.90;82.50
18091;DHT22;9172;49.948;9.208;2023-06-04T00:40:07;15.80;82.40
18091;DHT22;9172;49.948;9.208;2023-06-04T00:42:36;15.80;82.60
18091;DHT22;9172;49.948;9.208;2023-06-04T00:45:08;15.80;82.40
18091;DHT22;9172;49.948;9.208;2023-06-04T00:47:38;15.80;82.30
18091;DHT22;9172;49.948;9.208;2023-06-04T00:50:09;15.80;82.30
18091;DHT22;9172;49.948;9.208;2023-06-04T00:52:39;15.80;81.80
18091;DHT22;9172;49.948;9.208;2023-06-04T00:55:10;15.80;82.40
18091;DHT22;9172;49.948;9.208;2023-06-04T00:57:38;15.70;82.00
18091;DHT22;9172;49.948;9.208;2023-06-04T01:00:09;15.60;82.00
18091;DHT22;9172;49.948;9.208;2023-06-04T01:02:39;15.60;82.30
18091;DHT22;9172;49.948;9.208;2023-06-04T01:05:11;15.50;82.80
18091;DHT22;9172;49.948;9.208;2023-06-04T01:07:42;15.50;82.10
18091;DHT22;9172;49.948;9.208;2023-06-04T01:10:13;15.50;82.20
18091;DHT22;9172;49.948;9.208;2023-06-04T01:12:42;15.40;82.60
18091;DHT22;9172;49.948;9.208;2023-06-04T01:15:11;15.40;82.70
18091;DHT22;9172;49.948;9.208;2023-06-04T01:17:41;15.40;82.20
18091;DHT22;9172;49.948;9.208;2023-06-04T01:20:24;15.40;82.80
18091;DHT22;9172;49.948;9.208;2023-06-04T01:23:14;15.40;82.50
18091;DHT22;9172;49.948;9.208;2023-06-04T01:25:43;15.40;82.30
18091;DHT22;9172;49.948;9.208;2023-06-04T01:28:15;15.30;82.60
18091;DHT22;9172;49.948;9.208;2023-06-04T01:30:46;15.30;82.80
18091;DHT22;9172;49.948;9.208;2023-06-04T01:33:17;15.20;83.00
18091;DHT22;9172;49.948;9.208;2023-06-04T01:35:46;15.20;82.80
18091;DHT22;9172;49.948;9.208;2023-06-04T01:38:16;15.20;83.10
18091;DHT22;9172;49.948;9.208;2023-06-04T01:40:45;15.20;82.80
18091;DHT22;9172;49.948;9.208;2023-06-04T01:43:14;15.20;83.00
18091;DHT22;9172;49.948;9.208;2023-06-04T01:45:44;15.20;83.10
18091;DHT22;9172;49.948;9.208;2023-06-04T01:48:13;15.20;83.10
18091;DHT22;9172;49.948;9.208;2023-06-04T01:50:42;15.10;83.00
18091;DHT22;9172;49.948;9.208;2023-06-04T01:53:10;15.20;82.60
18091;DHT22;9172;49.948;9.208;2023-06-04T01:55:40;15.20;82.60
18091;DHT22;9172;49.948;9.208;2023-06-04T01:58:08;15.20;83.40
18091;DHT22;9172;49.948;9.208;2023-06-04T02:00:37;15.20;83.70
18091;DHT22;9172;49.948;9.208;2023-06-04T02:03:06;15.20;83.90
18091;DHT22;9172;49.948;9.208;2023-06-04T02:05:36;15.20;83.20
18091;DHT22;9172;49.948;9.208;2023-06-04T02:08:05;15.20;82.90
18091;DHT22;9172;49.948;9.208;2023-06-04T02:10:36;15.20;83.10
18091;DHT22;9172;49.948;9.208;2023-06-04T02:13:04;15.10;82.60
18091;DHT22;9172;49.948;9.208;2023-06-04T02:15:33;15.10;82.60
18091;DHT22;9172;49.948;9.208;2023-06-04T02:18:14;15.10;82.60
18091;DHT22;9172;49.948;9.208;2023-06-04T02:20:44;15.10;83.50
18091;DHT22;9172;49.948;9.208;2023-06-04T02:23:16;15.10;83.20
18091;DHT22;9172;49.948;9.208;2023-06-04T02:25:45;15.10;82.70
18091;DHT22;9172;49.948;9.208;2023-06-04T02:28:15;15.10;83.60
18091;DHT22;9172;49.948;9.208;2023-06-04T02:30:44;15.10;83.70
18091;DHT22;9172;49.948;9.208;2023-06-04T02:33:13;15.10;83.70
18091;DHT22;9172;49.948;9.208;2023-06-04T02:35:43;15.00;83.70
18091;DHT22;9172;49.948;9.208;2023-06-04T02:38:12;14.90;83.80
18091;DHT22;9172;49.948;9.208;2023-06-04T02:40:41;14.90;84.20
18091;DHT22;9172;49.948;9.208;2023-06-04T02:43:10;14.90;83.30
18091;DHT22;9172;49.948;9.208;2023-06-04T02:45:39;14.80;83.10
18091;DHT22;9172;49.948;9.208;2023-06-04T02:48:08;14.80;82.80
18091;DHT22;9172;49.948;9.208;2023-06-04T02:50:37;14.70;82.90
18091;DHT22;9172;49.948;9.208;2023-06-04T02:53:08;14.70;82.70
18091;DHT22;9172;49.948;9.208;2023-06-04T02:55:38;14.70;83.20
18091;DHT22;9172;49.948;9.208;2023-06-04T02:58:09;14.60;83.10
18091;DHT22;9172;49.948;9.208;2023-06-04T03:00:38;14.60;83.60
18091;DHT22;9172;49.948;9.208;2023-06-04T03:03:08;14.70;83.00
18091;DHT22;9172;49.948;9.208;2023-06-04T03:05:37;14.70;83.10
18091;DHT22;9172;49.948;9.208;2023-06-04T03:08:06;14.70;82.80
18091;DHT22;9172;49.948;9.208;2023-06-04T03:10:35;14.60;82.70
18091;DHT22;9172;49.948;9.208;2023-06-04T03:13:04;14.60;83.30
18091;DHT22;9172;49.948;9.208;2023-06-04T03:15:33;14.50;83.80
18091;DHT22;9172;49.948;9.208;2023-06-04T03:18:04;14.50;83.30
18091;DHT22;9172;49.948;9.208;2023-06-04T03:20:35;14.60;83.60
18091;DHT22;9172;49.948;9.208;2023-06-04T03:23:05;14.60;83.30
18091;DHT22;9172;49.948;9.208;2023-06-04T03:25:34;14.60;83.10
18091;DHT22;9172;49.948;9.208;2023-06-04T03:28:05;14.60;83.50
18091;DHT22;9172;49.948;9.208;2023-06-04T03:30:33;14.70;83.70
18091;DHT22;9172;49.948;9.208;2023-06-04T03:33:04;14.70;84.10
18091;DHT22;9172;49.948;9.208;2023-06-04T03:35:34;14.80;84.40
18091;DHT22;9172;49.948;9.208;2023-06-04T03:38:03;14.80;84.60
18091;DHT22;9172;49.948;9.208;2023-06-04T03:40:31;14.80;84.30
18091;DHT22;9172;49.948;9.208;2023-06-04T03:43:01;14.80;83.30
18091;DHT22;9172;49.948;9.208;2023-06-04T03:45:31;14.70;84.30
18091;DHT22;9172;49.948;9.208;2023-06-04T03:48:01;14.70;86.00
18091;DHT22;9172;49.948;9.208;2023-06-04T03:50:30;14.50;86.70
18091;DHT22;9172;49.948;9.208;2023-06-04T03:52:59;14.50;85.40
18091;DHT22;9172;49.948;9.208;2023-06-04T03:55:28;14.40;84.50
18091;DHT22;9172;49.948;9.208;2023-06-04T03:57:58;14.40;85.70
18091;DHT22;9172;49.948;9.208;2023-06-04T04:00:27;14.40;85.40
18091;DHT22;9172;49.948;9.208;2023-06-04T04:02:57;14.40;84.60
18091;DHT22;9172;49.948;9.208;2023-06-04T04:05:26;14.40;85.20
18091;DHT22;9172;49.948;9.208;2023-06-04T04:07:54;14.40;86.20
18091;DHT22;9172;49.948;9.208;2023-06-04T04:10:23;14.40;87.60
18091;DHT22;9172;49.948;9.208;2023-06-04T04:12:52;14.40;88.60
18091;DHT22;9172;49.948;9.208;2023-06-04T04:15:23;14.40;89.50
18091;DHT22;9172;49.948;9.208;2023-06-04T04:17:51;14.40;89.80
18091;DHT22;9172;49.948;9.208;2023-06-04T04:20:20;14.30;90.10
18091;DHT22;9172;49.948;9.208;2023-06-04T04:22:50;14.30;90.10
18091;DHT22;9172;49.948;9.208;2023-06-04T04:25:19;14.40;90.20
18091;DHT22;9172;49.948;9.208;2023-06-04T04:27:48;14.30;90.50
18091;DHT22;9172;49.948;9.208;2023-06-04T04:30:17;14.20;90.80
18091;DHT22;9172;49.948;9.208;2023-06-04T04:32:47;14.20;91.00
18091;DHT22;9172;49.948;9.208;2023-06-04T04:35:17;14.10;90.90
18091;DHT22;9172;49.948;9.208;2023-06-04T04:37:47;14.10;91.10
18091;DHT22;9172;49.948;9.208;2023-06-04T04:40:16;14.10;91.20
18091;DHT22;9172;49.948;9.208;2023-06-04T04:42:46;14.20;91.50
18091;DHT22;9172;49.948;9.208;2023-06-04T04:45:15;14.30;91.60
18091;DHT22;9172;49.948;9.208;2023-06-04T04:47:44;14.30;91.20
18091;DHT22;9172;49.948;9.208;2023-06-04T04:50:14;14.30;90.90
18091;DHT22;9172;49.948;9.208;2023-06-04T04:52:43;14.30;90.60
18091;DHT22;9172;49.948;9.208;2023-06-04T04:55:12;14.30;90.90
18091;DHT22;9172;49.948;9.208;2023-06-04T04:57:42;14.30;91.40
18091;DHT22;9172;49.948;9.208;2023-06-04T05:00:13;14.40;91.90
18091;DHT22;9172;49.948;9.208;2023-06-04T05:02:43;14.40;92.20
18091;DHT22;9172;49.948;9.208;2023-06-04T05:05:12;14.50;92.40
18091;DHT22;9172;49.948;9.208;2023-06-04T05:07:41;14.50;92.70
18091;DHT22;9172;49.948;9.208;2023-06-04T05:10:10;14.50;93.10
18091;DHT22;9172;49.948;9.208;2023-06-04T05:12:50;14.50;93.60
18091;DHT22;9172;49.948;9.208;2023-06-04T05:15:19;14.50;93.60
18091;DHT22;9172;49.948;9.208;2023-06-04T05:17:48;14.60;93.90
18091;DHT22;9172;49.948;9.208;2023-06-04T05:20:19;14.50;93.90
18091;DHT22;9172;49.948;9.208;2023-06-04T05:22:49;14.50;93.80
18091;DHT22;9172;49.948;9.208;2023-06-04T05:25:19;14.70;93.80
18091;DHT22;9172;49.948;9.208;2023-06-04T05:27:48;14.80;93.50
18091;DHT22;9172;49.948;9.208;2023-06-04T05:30:17;14.90;92.90
18091;DHT22;9172;49.948;9.208;2023-06-04T05:32:46;15.10;92.50
18091;DHT22;9172;49.948;9.208;2023-06-04T05:35:15;15.30;92.20
18091;DHT22;9172;49.948;9.208;2023-06-04T05:37:44;15.40;91.80
18091;DHT22;9172;49.948;9.208;2023-06-04T05:40:15;15.50;91.70
18091;DHT22;9172;49.948;9.208;2023-06-04T05:42:43;15.60;89.40
18091;DHT22;9172;49.948;9.208;2023-06-04T05:45:12;15.70;90.30
18091;DHT22;9172;49.948;9.208;2023-06-04T05:47:41;15.80;90.40
18091;DHT22;9172;49.948;9.208;2023-06-04T05:50:11;15.90;89.20
18091;DHT22;9172;49.948;9.208;2023-06-04T05:52:40;16.00;89.80
18091;DHT22;9172;49.948;9.208;2023-06-04T05:55:09;16.10;88.80
18091;DHT22;9172;49.948;9.208;2023-06-04T05:57:38;16.20;86.40
18091;DHT22;9172;49.948;9.208;2023-06-04T06:00:09;16.30;86.00
18091;DHT22;9172;49.948;9.208;2023-06-04T06:02:38;16.30;86.20
18091;DHT22;9172;49.948;9.208;2023-06-04T06:05:08;16.30;84.80
18091;DHT22;9172;49.948;9.208;2023-06-04T06:07:37;16.30;84.70
18091;DHT22;9172;49.948;9.208;2023-06-04T06:12:45;16.40;84.00
18091;DHT22;9172;49.948;9.208;2023-06-04T06:15:15;16.50;85.00
18091;DHT22;9172;49.948;9.208;2023-06-04T06:17:45;16.50;83.50
18091;DHT22;9172;49.948;9.208;2023-06-04T06:20:13;16.50;83.50
18091;DHT22;9172;49.948;9.208;2023-06-04T06:22:44;16.50;83.70
18091;DHT22;9172;49.948;9.208;2023-06-04T06:25:13;16.60;84.60
18091;DHT22;9172;49.948;9.208;2023-06-04T06:27:44;16.70;84.90
18091;DHT22;9172;49.948;9.208;2023-06-04T06:30:13;16.90;85.10
18091;DHT22;9172;49.948;9.208;2023-06-04T06:32:43;17.00;84.40
18091;DHT22;9172;49.948;9.208;2023-06-04T06:35:13;17.10;84.00
18091;DHT22;9172;49.948;9.208;2023-06-04T06:37:41;17.20;83.90
18091;DHT22;9172;49.948;9.208;2023-06-04T06:40:11;17.30;82.90
18091;DHT22;9172;49.948;9.208;2023-06-04T06:42:40;17.40;82.50
18091;DHT22;9172;49.948;9.208;2023-06-04T06:45:09;17.50;84.30
18091;DHT22;9172;49.948;9.208;2023-06-04T06:47:38;17.60;81.30
18091;DHT22;9172;49.948;9.208;2023-06-04T06:50:08;17.50;82.20
18091;DHT22;9172;49.948;9.208;2023-06-04T06:52:38;17.60;82.80
18091;DHT22;9172;49.948;9.208;2023-06-04T06:55:07;17.70;83.30
18091;DHT22;9172;49.948;9.208;2023-06-04T06:57:36;17.90;83.60
18091;DHT22;9172;49.948;9.208;2023-06-04T07:00:07;18.00;81.60
18091;DHT22;9172;49.948;9.208;2023-06-04T07:02:36;18.00;82.40
18091;DHT22;9172;49.948;9.208;2023-06-04T07:05:05;18.10;83.20
18091;DHT22;9172;49.948;9.208;2023-06-04T07:07:34;18.30;82.60
18091;DHT22;9172;49.948;9.208;2023-06-04T07:10:04;18.40;81.60
18091;DHT22;9172;49.948;9.208;2023-06-04T07:12:32;18.50;82.10
18091;DHT22;9172;49.948;9.208;2023-06-04T07:15:02;18.70;83.30
18091;DHT22;9172;49.948;9.208;2023-06-04T07:17:31;18.90;83.00
18091;DHT22;9172;49.948;9.208;2023-06-04T07:20:00;19.00;82.00
18091;DHT22;9172;49.948;9.208;2023-06-04T07:22:29;19.10;83.80
18091;DHT22;9172;49.948;9.208;2023-06-04T07:27:35;19.30;82.20
18091;DHT22;9172;49.948;9.208;2023-06-04T07:30:05;19.30;80.80
18091;DHT22;9172;49.948;9.208;2023-06-04T07:32:34;19.20;81.90
18091;DHT22;9172;49.948;9.208;2023-06-04T07:35:05;19.30;79.80
18091;DHT22;9172;49.948;9.208;2023-06-04T07:37:35;19.30;82.40
18091;DHT22;9172;49.948;9.208;2023-06-04T07:40:05;19.40;78.80
18091;DHT22;9172;49.948;9.208;2023-06-04T07:42:34;19.30;82.00
18091;DHT22;9172;49.948;9.208;2023-06-04T07:45:05;19.50;81.80
18091;DHT22;9172;49.948;9.208;2023-06-04T07:47:36;19.60;81.40
18091;DHT22;9172;49.948;9.208;2023-06-04T07:50:06;19.80;80.90
18091;DHT22;9172;49.948;9.208;2023-06-04T07:52:36;19.90;80.30
18091;DHT22;9172;49.948;9.208;2023-06-04T07:55:06;20.00;80.90
18091;DHT22;9172;49.948;9.208;2023-06-04T08:00:15;19.90;79.70
18091;DHT22;9172;49.948;9.208;2023-06-04T08:02:46;19.90;79.80
18091;DHT22;9172;49.948;9.208;2023-06-04T08:05:16;20.10;80.80
18091;DHT22;9172;49.948;9.208;2023-06-04T08:07:46;20.40;80.60
18091;DHT22;9172;49.948;9.208;2023-06-04T08:10:16;20.40;79.40
18091;DHT22;9172;49.948;9.208;2023-06-04T08:12:45;20.60;79.40
18091;DHT22;9172;49.948;9.208;2023-06-04T08:15:15;20.70;79.30
18091;DHT22;9172;49.948;9.208;2023-06-04T08:17:44;20.90;78.90
18091;DHT22;9172;49.948;9.208;2023-06-04T08:20:14;21.10;80.70
18091;DHT22;9172;49.948;9.208;2023-06-04T08:22:42;21.20;80.00
18091;DHT22;9172;49.948;9.208;2023-06-04T08:25:11;21.40;78.30
18091;DHT22;9172;49.948;9.208;2023-06-04T08:27:42;21.40;77.60
18091;DHT22;9172;49.948;9.208;2023-06-04T08:30:11;21.40;76.30
18091;DHT22;9172;49.948;9.208;2023-06-04T08:32:40;21.40;77.70
18091;DHT22;9172;49.948;9.208;2023-06-04T08:35:09;21.40;75.70
18091;DHT22;9172;49.948;9.208;2023-06-04T08:37:39;21.40;75.40
18091;DHT22;9172;49.948;9.208;2023-06-04T08:40:10;21.30;74.60
18091;DHT22;9172;49.948;9.208;2023-06-04T08:42:42;21.30;74.40
18091;DHT22;9172;49.948;9.208;2023-06-04T08:45:13;21.40;72.70
18091;DHT22;9172;49.948;9.208;2023-06-04T08:47:47;21.40;72.40
18091;DHT22;9172;49.948;9.208;2023-06-04T08:50:17;21.50;73.40
18091;DHT22;9172;49.948;9.208;2023-06-04T08:52:47;21.50;73.10
18091;DHT22;9172;49.948;9.208;2023-06-04T08:55:17;21.50;72.50
18091;DHT22;9172;49.948;9.208;2023-06-04T08:57:47;21.50;71.50
18091;DHT22;9172;49.948;9.208;2023-06-04T09:00:20;21.60;72.00
18091;DHT22;9172;49.948;9.208;2023-06-04T09:02:50;21.70;70.40
18091;DHT22;9172;49.948;9.208;2023-06-04T09:05:22;21.60;71.00
18091;DHT22;9172;49.948;9.208;2023-06-04T09:07:53;21.70;71.50
18091;DHT22;9172;49.948;9.208;2023-06-04T09:10:24;21.90;72.60
18091;DHT22;9172;49.948;9.208;2023-06-04T09:12:54;22.00;72.60
18091;DHT22;9172;49.948;9.208;2023-06-04T09:15:24;22.10;72.20
18091;DHT22;9172;49.948;9.208;2023-06-04T09:17:54;22.10;72.10
18091;DHT22;9172;49.948;9.208;2023-06-04T09:20:23;22.20;71.20
18091;DHT22;9172;49.948;9.208;2023-06-04T09:22:53;22.30;71.90
18091;DHT22;9172;49.948;9.208;2023-06-04T09:25:23;22.40;72.20
18091;DHT22;9172;49.948;9.208;2023-06-04T09:27:52;22.60;74.10
18091;DHT22;9172;49.948;9.208;2023-06-04T09:30:23;22.70;73.70
18091;DHT22;9172;49.948;9.208;2023-06-04T09:32:52;22.80;72.30
18091;DHT22;9172;49.948;9.208;2023-06-04T09:35:22;22.80;71.10
18091;DHT22;9172;49.948;9.208;2023-06-04T09:37:54;22.80;71.60
18091;DHT22;9172;49.948;9.208;2023-06-04T09:40:24;22.80;71.80
18091;DHT22;9172;49.948;9.208;2023-06-04T09:42:53;22.90;74.20
18091;DHT22;9172;49.948;9.208;2023-06-04T09:45:30;23.00;71.80
18091;DHT22;9172;49.948;9.208;2023-06-04T09:47:59;22.90;70.80
18091;DHT22;9172;49.948;9.208;2023-06-04T09:50:29;22.50;71.80
18091;DHT22;9172;49.948;9.208;2023-06-04T09:52:59;22.60;72.90
18091;DHT22;9172;49.948;9.208;2023-06-04T09:55:29;22.80;74.00
18091;DHT22;9172;49.948;9.208;2023-06-04T09:58:00;23.00;72.60
18091;DHT22;9172;49.948;9.208;2023-06-04T10:00:30;23.20;73.00
18091;DHT22;9172;49.948;9.208;2023-06-04T10:03:02;23.20;71.70
18091;DHT22;9172;49.948;9.208;2023-06-04T10:05:32;23.30;71.10
18091;DHT22;9172;49.948;9.208;2023-06-04T10:08:03;23.20;69.80
18091;DHT22;9172;49.948;9.208;2023-06-04T10:10:36;23.30;67.60
18091;DHT22;9172;49.948;9.208;2023-06-04T10:13:14;23.30;67.70
18091;DHT22;9172;49.948;9.208;2023-06-04T10:15:37;23.30;67.70
18091;DHT22;9172;49.948;9.208;2023-06-04T10:18:07;23.20;68.40
18091;DHT22;9172;49.948;9.208;2023-06-04T10:20:36;23.20;70.80
18091;DHT22;9172;49.948;9.208;2023-06-04T10:23:04;23.00;68.40
18091;DHT22;9172;49.948;9.208;2023-06-04T10:25:35;23.10;68.90
18091;DHT22;9172;49.948;9.208;2023-06-04T10:28:04;23.10;68.50
18091;DHT22;9172;49.948;9.208;2023-06-04T10:30:33;23.20;71.90
18091;DHT22;9172;49.948;9.208;2023-06-04T10:33:01;23.30;68.20
18091;DHT22;9172;49.948;9.208;2023-06-04T10:35:31;23.20;68.10
18091;DHT22;9172;49.948;9.208;2023-06-04T10:38:07;23.40;68.80
18091;DHT22;9172;49.948;9.208;2023-06-04T10:40:36;23.30;66.90
18091;DHT22;9172;49.948;9.208;2023-06-04T10:43:09;23.40;67.00
18091;DHT22;9172;49.948;9.208;2023-06-04T10:45:38;23.30;66.10
18091;DHT22;9172;49.948;9.208;2023-06-04T10:48:09;23.10;67.80
18091;DHT22;9172;49.948;9.208;2023-06-04T10:50:49;22.80;68.40
18091;DHT22;9172;49.948;9.208;2023-06-04T10:53:19;22.80;68.30
18091;DHT22;9172;49.948;9.208;2023-06-04T10:55:48;22.90;69.90
18091;DHT22;9172;49.948;9.208;2023-06-04T10:58:18;23.20;68.30
18091;DHT22;9172;49.948;9.208;2023-06-04T11:00:49;23.30;68.20
18091;DHT22;9172;49.948;9.208;2023-06-04T11:03:18;23.60;66.60
18091;DHT22;9172;49.948;9.208;2023-06-04T11:05:48;23.60;65.70
18091;DHT22;9172;49.948;9.208;2023-06-04T11:08:27;23.80;66.50
18091;DHT22;9172;49.948;9.208;2023-06-04T11:10:56;24.00;65.50
18091;DHT22;9172;49.948;9.208;2023-06-04T11:13:25;24.10;64.40
18091;DHT22;9172;49.948;9.208;2023-06-04T11:15:55;24.20;65.70
18091;DHT22;9172;49.948;9.208;2023-06-04T11:18:24;24.20;65.40
18091;DHT22;9172;49.948;9.208;2023-06-04T11:21:00;24.10;63.80
18091;DHT22;9172;49.948;9.208;2023-06-04T11:23:29;23.80;63.80
18091;DHT22;9172;49.948;9.208;2023-06-04T11:25:59;23.90;66.20
18091;DHT22;9172;49.948;9.208;2023-06-04T11:28:28;24.10;65.30
18091;DHT22;9172;49.948;9.208;2023-06-04T11:31:00;24.20;64.20
18091;DHT22;9172;49.948;9.208;2023-06-04T11:33:30;24.10;64.50
18091;DHT22;9172;49.948;9.208;2023-06-04T11:35:59;24.10;65.30
18091;DHT22;9172;49.948;9.208;2023-06-04T11:38:29;24.00;66.70
18091;DHT22;9172;49.948;9.208;2023-06-04T11:40:59;23.80;63.50
18091;DHT22;9172;49.948;9.208;2023-06-04T11:43:29;23.80;64.90
18091;DHT22;9172;49.948;9.208;2023-06-04T11:45:58;23.60;64.20
18091;DHT22;9172;49.948;9.208;2023-06-04T11:48:27;23.40;65.10
18091;DHT22;9172;49.948;9.208;2023-06-04T11:50:58;23.40;68.00
18091;DHT22;9172;49.948;9.208;2023-06-04T11:53:29;23.40;65.90
18091;DHT22;9172;49.948;9.208;2023-06-04T11:55:59;23.60;64.60
18091;DHT22;9172;49.948;9.208;2023-06-04T11:58:28;23.60;63.10
18091;DHT22;9172;49.948;9.208;2023-06-04T12:00:57;23.60;65.00
18091;DHT22;9172;49.948;9.208;2023-06-04T12:03:35;23.80;64.20
18091;DHT22;9172;49.948;9.208;2023-06-04T12:06:12;23.60;63.30
18091;DHT22;9172;49.948;9.208;2023-06-04T12:08:46;23.60;64.30
18091;DHT22;9172;49.948;9.208;2023-06-04T12:11:29;23.50;63.20
18091;DHT22;9172;49.948;9.208;2023-06-04T12:13:59;23.40;64.80
18091;DHT22;9172;49.948;9.208;2023-06-04T12:16:28;23.20;64.20
18091;DHT22;9172;49.948;9.208;2023-06-04T12:19:07;23.10;64.70
18091;DHT22;9172;49.948;9.208;2023-06-04T12:21:37;23.20;64.20
18091;DHT22;9172;49.948;9.208;2023-06-04T12:24:10;23.20;65.20
18091;DHT22;9172;49.948;9.208;2023-06-04T12:26:40;23.40;63.80
18091;DHT22;9172;49.948;9.208;2023-06-04T12:29:11;23.50;63.50
18091;DHT22;9172;49.948;9.208;2023-06-04T12:31:41;23.60;62.10
18091;DHT22;9172;49.948;9.208;2023-06-04T12:34:10;23.70;60.70
18091;DHT22;9172;49.948;9.208;2023-06-04T12:36:40;23.80;59.70
18091;DHT22;9172;49.948;9.208;2023-06-04T12:39:10;23.80;60.60
18091;DHT22;9172;49.948;9.208;2023-06-04T12:41:38;23.90;61.50
18091;DHT22;9172;49.948;9.208;2023-06-04T12:44:08;23.80;63.00
18091;DHT22;9172;49.948;9.208;2023-06-04T12:46:39;23.80;63.50
18091;DHT22;9172;49.948;9.208;2023-06-04T12:49:07;23.80;62.00
18091;DHT22;9172;49.948;9.208;2023-06-04T12:51:37;23.80;64.20
18091;DHT22;9172;49.948;9.208;2023-06-04T12:54:06;24.00;61.80
18091;DHT22;9172;49.948;9.208;2023-06-04T12:56:34;24.00;62.60
18091;DHT22;9172;49.948;9.208;2023-06-04T12:59:03;24.10;61.70
18091;DHT22;9172;49.948;9.208;2023-06-04T13:01:32;24.10;61.30
18091;DHT22;9172;49.948;9.208;2023-06-04T13:04:01;24.20;62.10
18091;DHT22;9172;49.948;9.208;2023-06-04T13:06:30;24.10;62.20
18091;DHT22;9172;49.948;9.208;2023-06-04T13:08:59;24.20;62.20
18091;DHT22;9172;49.948;9.208;2023-06-04T13:11:28;24.10;61.70
18091;DHT22;9172;49.948;9.208;2023-06-04T13:13:58;24.10;63.90
18091;DHT22;9172;49.948;9.208;2023-06-04T13:16:26;24.10;61.50
18091;DHT22;9172;49.948;9.208;2023-06-04T13:18:56;24.00;62.20
18091;DHT22;9172;49.948;9.208;2023-06-04T13:21:24;24.10;63.00
18091;DHT22;9172;49.948;9.208;2023-06-04T13:23:54;24.20;62.70
18091;DHT22;9172;49.948;9.208;2023-06-04T13:26:23;24.20;61.60
18091;DHT22;9172;49.948;9.208;2023-06-04T13:28:53;24.10;61.80
18091;DHT22;9172;49.948;9.208;2023-06-04T13:31:24;23.90;61.40
18091;DHT22;9172;49.948;9.208;2023-06-04T13:33:52;23.90;62.80
18091;DHT22;9172;49.948;9.208;2023-06-04T13:36:21;23.90;61.10
18091;DHT22;9172;49.948;9.208;2023-06-04T13:38:50;23.90;62.80
18091;DHT22;9172;49.948;9.208;2023-06-04T13:41:20;23.80;63.90
18091;DHT22;9172;49.948;9.208;2023-06-04T13:43:49;23.80;64.60
18091;DHT22;9172;49.948;9.208;2023-06-04T13:46:18;23.80;64.10
18091;DHT22;9172;49.948;9.208;2023-06-04T13:48:47;23.80;62.50
18091;DHT22;9172;49.948;9.208;2023-06-04T13:51:16;23.80;62.60
18091;DHT22;9172;49.948;9.208;2023-06-04T13:53:45;23.70;62.30
18091;DHT22;9172;49.948;9.208;2023-06-04T13:56:15;23.70;64.00
18091;DHT22;9172;49.948;9.208;2023-06-04T13:58:44;23.80;63.90
18091;DHT22;9172;49.948;9.208;2023-06-04T14:01:12;23.90;62.40
18091;DHT22;9172;49.948;9.208;2023-06-04T14:03:43;23.90;62.60
18091;DHT22;9172;49.948;9.208;2023-06-04T14:06:12;23.80;64.30
18091;DHT22;9172;49.948;9.208;2023-06-04T14:08:41;23.80;60.40
18091;DHT22;9172;49.948;9.208;2023-06-04T14:11:10;23.90;61.70
18091;DHT22;9172;49.948;9.208;2023-06-04T14:13:38;23.90;62.70
18091;DHT22;9172;49.948;9.208;2023-06-04T14:16:08;23.90;62.10
18091;DHT22;9172;49.948;9.208;2023-06-04T14:18:37;23.80;63.50
18091;DHT22;9172;49.948;9.208;2023-06-04T14:21:05;23.80;63.60
18091;DHT22;9172;49.948;9.208;2023-06-04T14:23:35;23.70;62.70
18091;DHT22;9172;49.948;9.208;2023-06-04T14:26:04;23.70;63.60
18091;DHT22;9172;49.948;9.208;2023-06-04T14:28:33;23.70;65.70
18091;DHT22;9172;49.948;9.208;2023-06-04T14:31:03;23.70;65.40
18091;DHT22;9172;49.948;9.208;2023-06-04T14:33:32;23.70;65.30
18091;DHT22;9172;49.948;9.208;2023-06-04T14:36:02;23.80;65.10
18091;DHT22;9172;49.948;9.208;2023-06-04T14:38:31;23.70;64.20
18091;DHT22;9172;49.948;9.208;2023-06-04T14:41:00;23.80;64.60
18091;DHT22;9172;49.948;9.208;2023-06-04T14:43:29;23.80;63.90
18091;DHT22;9172;49.948;9.208;2023-06-04T14:45:59;23.70;63.40
18091;DHT22;9172;49.948;9.208;2023-06-04T14:48:28;23.70;64.30
18091;DHT22;9172;49.948;9.208;2023-06-04T14:50:57;23.70;65.70
18091;DHT22;9172;49.948;9.208;2023-06-04T14:53:26;23.80;64.80
18091;DHT22;9172;49.948;9.208;2023-06-04T14:55:55;23.80;65.00
18091;DHT22;9172;49.948;9.208;2023-06-04T14:58:24;23.80;63.40
18091;DHT22;9172;49.948;9.208;2023-06-04T15:00:53;23.80;65.00
18091;DHT22;9172;49.948;9.208;2023-06-04T15:03:23;23.90;65.60
18091;DHT22;9172;49.948;9.208;2023-06-04T15:05:52;23.90;64.60
18091;DHT22;9172;49.948;9.208;2023-06-04T15:08:21;23.80;64.60
18091;DHT22;9172;49.948;9.208;2023-06-04T15:10:49;23.80;64.00
18091;DHT22;9172;49.948;9.208;2023-06-04T15:13:17;23.80;64.10
18091;DHT22;9172;49.948;9.208;2023-06-04T15:15:48;23.70;64.80
18091;DHT22;9172;49.948;9.208;2023-06-04T15:18:16;23.70;63.60
18091;DHT22;9172;49.948;9.208;2023-06-04T15:20:45;23.60;64.50
18091;DHT22;9172;49.948;9.208;2023-06-04T15:23:13;23.60;65.50
18091;DHT22;9172;49.948;9.208;2023-06-04T15:25:42;23.60;65.10
18091;DHT22;9172;49.948;9.208;2023-06-04T15:28:12;23.50;63.50
18091;DHT22;9172;49.948;9.208;2023-06-04T15:30:42;23.50;63.60
18091;DHT22;9172;49.948;9.208;2023-06-04T15:33:11;23.40;62.60
18091;DHT22;9172;49.948;9.208;2023-06-04T15:35:39;23.30;63.50
18091;DHT22;9172;49.948;9.208;2023-06-04T15:38:08;23.30;63.90
18091;DHT22;9172;49.948;9.208;2023-06-04T15:40:37;23.30;62.90
18091;DHT22;9172;49.948;9.208;2023-06-04T15:43:05;23.20;63.90
18091;DHT22;9172;49.948;9.208;2023-06-04T15:45:34;23.20;63.90
18091;DHT22;9172;49.948;9.208;2023-06-04T15:48:03;23.30;64.50
18091;DHT22;9172;49.948;9.208;2023-06-04T15:50:32;23.30;63.50
18091;DHT22;9172;49.948;9.208;2023-06-04T15:53:01;23.30;62.90
18091;DHT22;9172;49.948;9.208;2023-06-04T15:55:31;23.30;63.60
18091;DHT22;9172;49.948;9.208;2023-06-04T15:57:59;23.20;61.90
18091;DHT22;9172;49.948;9.208;2023-06-04T16:00:28;23.20;62.50
18091;DHT22;9172;49.948;9.208;2023-06-04T16:02:56;23.20;62.70
18091;DHT22;9172;49.948;9.208;2023-06-04T16:05:25;23.20;63.30
18091;DHT22;9172;49.948;9.208;2023-06-04T16:07:54;23.30;63.70